Time;durP1;ratioP1;P1;durP2;ratioP2;P2;SDS_P1;SDS_P2;PMS_P1;PMS_P2;Temp;Humidity;BMP_temperature;BMP_pressure;BME280_temperature;BME280_humidity;BME280_pressure;Samples;Min_cycle;Max_cycle;Signal;HPM_P1;HPM_P2
2021/12/10 00:00:14;;;;;;;162.48;76.65;;;;;;;;;;4999879;28;20065;-79
2021/12/10 00:02:45;;;;;;;162.15;74.50;;;;;;;;;;4998249;28;20451;-79
2021/12/10 00:05:14;;;;;;;144.73;72.47;;;;;;;;;;4997871;28;20046;-79
2021/12/10 00:07:40;;;;;;;146.45;71.75;;;;;;;;;;4998151;28;20064;-79
2021/12/10 00:10:08;;;;;;;142.60;71.95;;;;;;;;;;4998133;28;20037;-80
2021/12/10 00:12:38;;;;;;;138.95;72.70;;;;;;;;;;4997808;28;20029;-79
2021/12/10 00:15:06;;;;;;;141.73;72.07;;;;;;;;;;4998843;28;20045;-79
2021/12/10 00:17:32;;;;;;;161.50;78.22;;;;;;;;;;4998198;28;20026;-79
2021/12/10 00:19:59;;;;;;;174.07;74.80;;;;;;;;;;4999375;28;20022;-80
2021/12/10 00:22:33;;;;;;;148.00;72.70;;;;;;;;;;4997479;28;20023;-79
2021/12/10 00:24:59;;;;;;;164.20;79.07;;;;;;;;;;5003597;23;20042;-79
2021/12/10 00:27:30;;;;;;;144.02;73.50;;;;;;;;;;4998868;28;20106;-80
2021/12/10 00:30:04;;;;;;;157.98;81.13;;;;;;;;;;4999048;28;20046;-80
2021/12/10 00:32:35;;;;;;;165.68;85.90;;;;;;;;;;4997468;28;20018;-80
2021/12/10 00:35:03;;;;;;;151.60;79.63;;;;;;;;;;4999030;28;20014;-80
2021/12/10 00:37:29;;;;;;;156.40;80.35;;;;;;;;;;4999801;28;20049;-79
2021/12/10 00:39:57;;;;;;;150.32;79.97;;;;;;;;;;4998378;28;20048;-79
2021/12/10 00:42:26;;;;;;;156.15;74.45;;;;;;;;;;4998436;28;20014;-80
2021/12/10 00:44:53;;;;;;;161.10;83.28;;;;;;;;;;4981409;28;20345;-79
2021/12/10 00:47:19;;;;;;;176.15;85.05;;;;;;;;;;4998227;28;20022;-79
2021/12/10 00:49:45;;;;;;;173.63;89.00;;;;;;;;;;4996825;28;20027;-79
2021/12/10 00:52:12;;;;;;;164.38;91.75;;;;;;;;;;4998062;28;20022;-79
2021/12/10 00:54:38;;;;;;;162.38;84.68;;;;;;;;;;4997189;28;20026;-79
2021/12/10 00:57:05;;;;;;;165.00;91.55;;;;;;;;;;4998236;28;20105;-79
2021/12/10 00:59:32;;;;;;;179.98;95.57;;;;;;;;;;4998198;28;20413;-79
2021/12/10 01:01:59;;;;;;;177.25;95.78;;;;;;;;;;4997998;28;20105;-80
2021/12/10 01:04:29;;;;;;;198.57;106.03;;;;;;;;;;4997792;28;20070;-79
2021/12/10 01:06:56;;;;;;;222.95;107.32;;;;;;;;;;4981571;28;20018;-79
2021/12/10 01:09:25;;;;;;;208.13;100.47;;;;;;;;;;4999392;28;20018;-79
2021/12/10 01:11:52;;;;;;;198.30;96.45;;;;;;;;;;4996617;28;20022;-80
2021/12/10 01:14:26;;;;;;;162.93;87.03;;;;;;;;;;4999061;28;20026;-79
2021/12/10 01:25:23;;;;;;;149.98;75.50;;;;;;;;;;4999401;28;20042;-79
2021/12/10 01:27:49;;;;;;;148.13;71.00;;;;;;;;;;4998404;28;20034;-80
2021/12/10 01:30:23;;;;;;;136.00;70.55;;;;;;;;;;4996825;28;20077;-80
2021/12/10 01:32:52;;;;;;;133.63;69.60;;;;;;;;;;4999301;28;20022;-80
2021/12/10 01:35:21;;;;;;;144.35;70.55;;;;;;;;;;4997221;28;20369;-79
2021/12/10 01:37:49;;;;;;;124.40;61.63;;;;;;;;;;4997741;28;20030;-80
2021/12/10 01:40:20;;;;;;;121.28;64.57;;;;;;;;;;5002797;28;20349;-79
2021/12/10 01:42:50;;;;;;;112.72;60.75;;;;;;;;;;4990895;28;20069;-79
2021/12/10 01:45:21;;;;;;;106.10;59.63;;;;;;;;;;4998852;28;20034;-80
2021/12/10 01:47:48;;;;;;;;;;;;;;;;;;4998911;28;20333;-79
2021/12/10 01:50:20;;;;;;;117.85;60.90;;;;;;;;;;4987459;28;19996;-79
2021/12/10 01:52:58;;;;;;;112.13;59.65;;;;;;;;;;5093872;23;20049;-78
2021/12/10 01:55:39;;;;;;;115.80;54.97;;;;;;;;;;4985741;28;20022;-78
2021/12/10 01:58:24;;;;;;;115.07;58.05;;;;;;;;;;5000826;28;20101;-78
2021/12/10 02:00:54;;;;;;;113.88;57.13;;;;;;;;;;5423324;23;20041;-80
2021/12/10 02:03:20;;;;;;;111.93;52.50;;;;;;;;;;4997708;28;20019;-81
2021/12/10 02:05:46;;;;;;;104.22;49.03;;;;;;;;;;4995700;28;20030;-80
2021/12/10 02:08:12;;;;;;;91.63;45.78;;;;;;;;;;5011206;23;20042;-80
2021/12/10 02:10:39;;;;;;;92.00;46.67;;;;;;;;;;5003141;23;20046;-81
2021/12/10 02:13:05;;;;;;;96.68;52.03;;;;;;;;;;4998667;28;20014;-81
2021/12/10 02:15:31;;;;;;;113.93;60.33;;;;;;;;;;4998571;28;20041;-80
2021/12/10 02:17:58;;;;;;;107.97;58.78;;;;;;;;;;5000647;28;20066;-81
2021/12/10 02:20:24;;;;;;;134.82;73.32;;;;;;;;;;4999072;28;20294;-80
2021/12/10 02:22:50;;;;;;;154.82;70.35;;;;;;;;;;5003679;28;20143;-80
2021/12/10 02:25:20;;;;;;;136.95;65.03;;;;;;;;;;5096812;23;20367;-78
2021/12/10 02:27:51;;;;;;;115.75;57.05;;;;;;;;;;4988081;28;20030;-78
2021/12/10 02:30:21;;;;;;;139.52;64.43;;;;;;;;;;4981588;28;20292;-77
2021/12/10 02:32:51;;;;;;;118.05;57.30;;;;;;;;;;4980306;28;20092;-77
2021/12/10 02:35:21;;;;;;;136.90;66.30;;;;;;;;;;4980080;28;20121;-77
2021/12/10 02:37:51;;;;;;;147.27;69.70;;;;;;;;;;4980825;28;20030;-77
2021/12/10 02:40:29;;;;;;;142.90;63.90;;;;;;;;;;4984659;23;20034;-78
2021/12/10 02:43:02;;;;;;;135.60;64.72;;;;;;;;;;4984363;28;20421;-78
2021/12/10 02:45:32;;;;;;;147.18;65.95;;;;;;;;;;4977344;28;20444;-78
2021/12/10 02:48:04;;;;;;;154.00;70.20;;;;;;;;;;4991113;23;20049;-77
2021/12/10 02:50:40;;;;;;;141.15;70.22;;;;;;;;;;4980065;28;20025;-77
2021/12/10 02:53:15;;;;;;;120.78;55.88;;;;;;;;;;4985698;23;20097;-79
2021/12/10 02:56:00;;;;;;;152.85;70.30;;;;;;;;;;4994706;28;20019;-78
2021/12/10 02:58:33;;;;;;;137.10;63.80;;;;;;;;;;4963117;28;20033;-77
2021/12/10 03:01:04;;;;;;;148.02;68.88;;;;;;;;;;4975675;28;20496;-78
2021/12/10 03:03:41;;;;;;;105.55;53.10;;;;;;;;;;5034167;23;20022;-78
2021/12/10 03:06:16;;;;;;;134.82;57.67;;;;;;;;;;4988090;23;20053;-79
2021/12/10 03:11:27;;;;;;;125.40;64.75;;;;;;;;;;5038621;23;20262;-80
2021/12/10 03:14:09;;;;;;;133.93;68.20;;;;;;;;;;5061524;23;20039;-77
2021/12/10 03:16:37;;;;;;;117.22;60.28;;;;;;;;;;5277020;23;2150230;-77
2021/12/10 03:21:29;;;;;;;114.68;50.85;;;;;;;;;;5133371;23;20440;-77
2021/12/10 03:23:56;;;;;;;137.60;52.60;;;;;;;;;;5071939;23;20100;-77
2021/12/10 03:26:29;;;;;;;121.32;60.22;;;;;;;;;;5384178;23;21406;-76
2021/12/10 03:28:55;;;;;;;120.45;56.30;;;;;;;;;;5064788;23;20440;-76
2021/12/10 03:31:22;;;;;;;114.75;62.00;;;;;;;;;;4994990;28;20025;-76
2021/12/10 03:33:48;;;;;;;133.95;66.85;;;;;;;;;;4977807;28;20018;-75
2021/12/10 03:36:15;;;;;;;137.82;69.00;;;;;;;;;;4994512;28;20032;-75
2021/12/10 03:38:41;;;;;;;129.60;63.03;;;;;;;;;;4997708;28;20220;-78
2021/12/10 03:41:08;;;;;;;126.72;63.20;;;;;;;;;;5140173;23;20145;-77
2021/12/10 03:43:35;;;;;;;142.10;69.07;;;;;;;;;;4987774;23;20133;-77
2021/12/10 03:46:01;;;;;;;137.90;67.57;;;;;;;;;;4998729;28;20045;-77
2021/12/10 03:48:29;;;;;;;139.90;65.22;;;;;;;;;;5000162;28;20140;-76
2021/12/10 03:50:58;;;;;;;125.57;63.38;;;;;;;;;;4983511;28;20026;-77
2021/12/10 03:53:26;;;;;;;149.48;73.95;;;;;;;;;;5003948;23;20030;-77
2021/12/10 03:55:58;;;;;;;135.60;73.65;;;;;;;;;;4979934;28;20042;-78
2021/12/10 03:58:25;;;;;;;137.07;76.65;;;;;;;;;;5080494;23;20046;-82
2021/12/10 04:00:53;;;;;;;151.98;87.53;;;;;;;;;;5409912;23;20429;-80
2021/12/10 04:03:21;;;;;;;182.68;99.55;;;;;;;;;;5007426;28;20022;-80
2021/12/10 04:05:50;;;;;;;202.23;110.47;;;;;;;;;;5232352;23;20049;-79
2021/12/10 04:08:16;;;;;;;198.67;110.30;;;;;;;;;;5213446;23;20113;-78
2021/12/10 04:10:43;;;;;;;209.45;121.75;;;;;;;;;;5055557;23;20105;-77
2021/12/10 04:13:09;;;;;;;238.98;137.55;;;;;;;;;;5019851;23;20046;-77
2021/12/10 04:15:38;;;;;;;238.90;136.07;;;;;;;;;;4995485;28;20072;-77
2021/12/10 04:18:05;;;;;;;252.25;140.48;;;;;;;;;;5020995;23;20089;-81
2021/12/10 04:20:35;;;;;;;229.48;125.30;;;;;;;;;;5003814;28;20022;-81
2021/12/10 04:23:04;;;;;;;244.32;132.25;;;;;;;;;;5000979;28;20080;-81
2021/12/10 04:25:31;;;;;;;235.88;125.18;;;;;;;;;;5001242;28;20030;-81
2021/12/10 04:27:59;;;;;;;223.73;127.50;;;;;;;;;;5301978;23;20054;-77
2021/12/10 04:30:25;;;;;;;220.40;121.70;;;;;;;;;;5009109;23;20046;-78
2021/12/10 04:32:52;;;;;;;153.68;85.47;;;;;;;;;;4994992;28;20166;-78
2021/12/10 04:35:20;;;;;;;180.40;99.25;;;;;;;;;;5007323;23;20046;-82
2021/12/10 04:37:49;;;;;;;165.27;89.85;;;;;;;;;;5003986;28;20025;-80
2021/12/10 04:40:18;;;;;;;139.60;81.82;;;;;;;;;;5026518;23;20042;-80
2021/12/10 04:42:44;;;;;;;114.25;65.47;;;;;;;;;;5104302;23;20141;-78
2021/12/10 04:45:14;;;;;;;107.20;61.05;;;;;;;;;;5032301;23;20018;-78
2021/12/10 04:47:44;;;;;;;99.80;58.45;;;;;;;;;;5040941;23;20372;-78
2021/12/10 04:50:22;;;;;;;102.07;55.13;;;;;;;;;;5009577;23;20361;-79
2021/12/10 04:52:54;;;;;;;77.35;42.20;;;;;;;;;;4996685;28;20041;-79
2021/12/10 04:55:22;;;;;;;62.88;33.95;;;;;;;;;;4999195;28;20073;-77
2021/12/10 04:57:53;;;;;;;61.50;30.08;;;;;;;;;;5022692;23;20066;-79
2021/12/10 05:00:28;;;;;;;46.95;23.83;;;;;;;;;;4980649;28;20030;-79
2021/12/10 05:03:04;;;;;;;43.63;21.90;;;;;;;;;;4982208;28;20090;-80
2021/12/10 05:05:31;;;;;;;38.88;20.98;;;;;;;;;;4980421;28;20097;-78
2021/12/10 05:07:58;;;;;;;48.75;18.65;;;;;;;;;;5002961;23;20051;-79
2021/12/10 05:10:26;;;;;;;41.50;18.58;;;;;;;;;;4979403;28;20015;-79
2021/12/10 05:12:53;;;;;;;33.90;16.48;;;;;;;;;;4979887;28;20031;-79
2021/12/10 05:15:27;;;;;;;34.00;14.50;;;;;;;;;;4997613;23;20038;-81
2021/12/10 05:17:55;;;;;;;33.83;12.10;;;;;;;;;;4998874;28;20038;-81
2021/12/10 05:20:25;;;;;;;28.13;12.67;;;;;;;;;;5001465;23;20375;-76
2021/12/10 05:22:51;;;;;;;23.95;12.77;;;;;;;;;;4996087;28;20025;-77
2021/12/10 05:25:18;;;;;;;25.13;12.15;;;;;;;;;;5024900;23;20535;-77
2021/12/10 05:27:45;;;;;;;28.17;12.80;;;;;;;;;;4996660;28;20105;-76
2021/12/10 05:30:15;;;;;;;20.70;10.00;;;;;;;;;;4996793;28;20024;-77
2021/12/10 05:32:41;;;;;;;26.25;8.98;;;;;;;;;;5036265;23;20018;-77
2021/12/10 05:35:10;;;;;;;22.88;10.05;;;;;;;;;;5023875;23;20057;-80
2021/12/10 05:37:36;;;;;;;34.30;12.20;;;;;;;;;;5004378;28;20046;-80
2021/12/10 05:45:16;;;;;;;22.85;11.50;;;;;;;;;;5258285;23;20461;-75
2021/12/10 05:47:48;;;;;;;28.42;11.43;;;;;;;;;;4957446;28;20035;-76
2021/12/10 05:50:19;;;;;;;19.42;10.38;;;;;;;;;;4955674;28;20426;-77
2021/12/10 05:52:52;;;;;;;15.93;9.27;;;;;;;;;;4956015;28;20178;-77
2021/12/10 05:55:20;;;;;;;31.55;9.20;;;;;;;;;;4954188;28;20031;-78
2021/12/10 05:57:46;;;;;;;19.70;9.43;;;;;;;;;;5123940;23;20046;-78
2021/12/10 06:00:22;;;;;;;40.13;12.18;;;;;;;;;;4999423;28;20026;-77
2021/12/10 06:02:48;;;;;;;27.10;8.70;;;;;;;;;;4998666;28;20023;-78
2021/12/10 06:05:17;;;;;;;22.58;8.02;;;;;;;;;;4999304;28;20128;-77
2021/12/10 06:07:43;;;;;;;23.40;7.68;;;;;;;;;;5000739;28;20024;-78
2021/12/10 06:10:11;;;;;;;24.08;9.80;;;;;;;;;;4999350;28;20025;-79
2021/12/10 06:12:37;;;;;;;19.00;7.38;;;;;;;;;;4998482;28;20127;-78
2021/12/10 06:15:04;;;;;;;20.75;6.88;;;;;;;;;;5000803;28;20034;-78
2021/12/10 06:17:30;;;;;;;20.15;8.10;;;;;;;;;;4998144;28;20341;-77
2021/12/10 06:19:59;;;;;;;25.40;9.88;;;;;;;;;;4998620;28;20022;-78
2021/12/10 06:22:25;;;;;;;19.95;6.05;;;;;;;;;;5072600;23;20053;-78
2021/12/10 06:24:52;;;;;;;24.70;6.70;;;;;;;;;;5004222;23;20050;-81
2021/12/10 06:27:19;;;;;;;13.65;5.18;;;;;;;;;;5087071;23;20043;-81
2021/12/10 06:29:45;;;;;;;11.63;4.60;;;;;;;;;;4998672;28;20083;-82
2021/12/10 06:32:11;;;;;;;12.57;4.63;;;;;;;;;;4984239;28;20035;-81
2021/12/10 06:34:38;;;;;;;12.90;4.82;;;;;;;;;;4980960;28;20015;-82
2021/12/10 06:37:06;;;;;;;10.73;4.80;;;;;;;;;;5117982;23;20050;-78
2021/12/10 06:39:37;;;;;;;12.77;3.28;;;;;;;;;;4996271;28;20042;-76
2021/12/10 06:42:05;;;;;;;15.73;5.95;;;;;;;;;;4969301;23;20133;-77
2021/12/10 06:47:16;;;;;;;20.08;4.00;;;;;;;;;;5167862;23;20046;-80
2021/12/10 06:49:42;;;;;;;14.23;5.65;;;;;;;;;;4982204;28;20015;-80
2021/12/10 06:52:08;;;;;;;12.27;3.40;;;;;;;;;;4980083;28;20022;-76
2021/12/10 07:07:53;;;;;;;16.80;3.37;;;;;;;;;;5114183;23;20046;-78
2021/12/10 07:10:31;;;;;;;28.30;9.43;;;;;;;;;;5024794;23;20133;-80
2021/12/10 07:12:59;;;;;;;12.10;2.78;;;;;;;;;;4998782;28;20026;-82
2021/12/10 07:15:27;;;;;;;11.15;3.63;;;;;;;;;;4980449;28;20069;-80
2021/12/10 07:30:53;;;;;;;;;;;;;;;;;;4705689;23;20046;-76
2021/12/10 07:36:48;;;;;;;6.32;2.50;;;;;;;;;;5041496;23;20514;-78
2021/12/10 07:39:15;;;;;;;8.40;2.88;;;;;;;;;;5003931;23;20069;-78
2021/12/10 07:41:41;;;;;;;9.10;3.33;;;;;;;;;;5002001;23;20045;-81
2021/12/10 07:44:07;;;;;;;13.35;3.35;;;;;;;;;;4998941;28;20014;-80
2021/12/10 07:46:34;;;;;;;4.80;1.92;;;;;;;;;;4999207;28;20034;-80
2021/12/10 07:49:01;;;;;;;7.95;1.90;;;;;;;;;;5001796;28;20479;-81
2021/12/10 07:51:28;;;;;;;5.60;2.05;;;;;;;;;;4982780;28;20058;-80
2021/12/10 07:53:57;;;;;;;10.88;3.40;;;;;;;;;;4999516;28;20022;-81
2021/12/10 07:56:25;;;;;;;7.50;2.58;;;;;;;;;;5025710;23;20038;-81
2021/12/10 07:58:52;;;;;;;9.32;2.63;;;;;;;;;;5000708;28;20057;-81
2021/12/10 08:37:13;;;;;;;7.15;2.88;;;;;;;;;;5061034;23;20081;-77
2021/12/10 08:39:41;;;;;;;7.32;3.90;;;;;;;;;;4994337;28;20029;-77
2021/12/10 08:42:13;;;;;;;11.52;2.10;;;;;;;;;;5058501;23;20141;-78
2021/12/10 08:44:39;;;;;;;6.50;2.47;;;;;;;;;;4996872;28;20038;-78
2021/12/10 08:47:05;;;;;;;8.80;2.75;;;;;;;;;;4999312;28;20293;-78
2021/12/10 08:49:32;;;;;;;8.70;2.38;;;;;;;;;;4997822;28;20037;-78
2021/12/10 08:51:58;;;;;;;14.55;4.28;;;;;;;;;;4997549;28;20030;-78
2021/12/10 08:54:26;;;;;;;10.75;2.45;;;;;;;;;;4998443;28;20023;-76
2021/12/10 08:56:55;;;;;;;10.57;3.13;;;;;;;;;;4988881;28;20018;-76
2021/12/10 08:59:23;;;;;;;14.25;3.65;;;;;;;;;;4991514;28;20026;-76
2021/12/10 09:01:52;;;;;;;12.43;2.60;;;;;;;;;;4991093;28;20286;-76
2021/12/10 09:04:18;;;;;;;10.32;2.70;;;;;;;;;;4990865;28;20073;-76
2021/12/10 09:06:48;;;;;;;15.38;2.67;;;;;;;;;;4991145;28;20030;-76
2021/12/10 09:09:14;;;;;;;8.13;3.08;;;;;;;;;;4991948;28;20113;-77
2021/12/10 09:11:43;;;;;;;8.73;2.55;;;;;;;;;;4991653;28;20022;-76
2021/12/10 09:14:09;;;;;;;14.25;3.13;;;;;;;;;;4975762;28;20552;-76
2021/12/10 09:16:36;;;;;;;10.60;2.92;;;;;;;;;;4978190;28;20076;-76
2021/12/10 09:19:12;;;;;;;13.63;3.00;;;;;;;;;;4995063;28;20033;-76
2021/12/10 09:21:38;;;;;;;6.93;3.03;;;;;;;;;;4996029;28;20015;-75
2021/12/10 09:24:06;;;;;;;20.35;4.50;;;;;;;;;;4996810;28;20023;-75
2021/12/10 09:26:37;;;;;;;19.80;5.63;;;;;;;;;;4995353;28;20498;-75
2021/12/10 09:29:04;;;;;;;12.75;2.97;;;;;;;;;;4995753;28;20034;-75
2021/12/10 09:31:30;;;;;;;12.05;4.50;;;;;;;;;;4997878;28;20022;-75
2021/12/10 09:33:57;;;;;;;13.23;5.47;;;;;;;;;;4998929;28;20463;-76
2021/12/10 09:36:25;;;;;;;13.30;3.50;;;;;;;;;;4998874;28;20034;-75
2021/12/10 09:38:51;;;;;;;12.38;3.58;;;;;;;;;;4998626;28;20437;-76
2021/12/10 09:41:18;;;;;;;13.15;3.70;;;;;;;;;;4977859;23;1473589;-80
2021/12/10 09:43:44;;;;;;;7.93;2.92;;;;;;;;;;5002817;28;20329;-80
2021/12/10 09:46:11;;;;;;;20.15;4.05;;;;;;;;;;5038252;23;20058;-80
2021/12/10 09:48:38;;;;;;;9.52;3.60;;;;;;;;;;5001961;28;20026;-79
2021/12/10 09:51:30;;;;;;;11.60;3.75;;;;;;;;;;5001520;28;20413;-80
2021/12/10 09:53:59;;;;;;;16.50;4.22;;;;;;;;;;5000799;28;20034;-81
2021/12/10 09:56:27;;;;;;;12.65;4.57;;;;;;;;;;4984921;28;20026;-80
2021/12/10 09:58:54;;;;;;;14.95;3.22;;;;;;;;;;5028153;23;20077;-77
2021/12/10 10:01:25;;;;;;;7.82;2.95;;;;;;;;;;5002026;28;20019;-77
2021/12/10 10:03:54;;;;;;;7.95;3.28;;;;;;;;;;5001197;28;20356;-77
2021/12/10 10:06:20;;;;;;;8.67;3.93;;;;;;;;;;5001915;28;20085;-76
2021/12/10 10:08:46;;;;;;;22.98;3.97;;;;;;;;;;5004370;28;20022;-76
2021/12/10 10:11:16;;;;;;;9.45;3.33;;;;;;;;;;5000267;28;20431;-76
2021/12/10 10:13:45;;;;;;;11.80;3.97;;;;;;;;;;4983557;28;20429;-76
2021/12/10 10:16:12;;;;;;;15.23;4.03;;;;;;;;;;5000714;28;20244;-76
2021/12/10 10:18:40;;;;;;;11.48;4.45;;;;;;;;;;5000772;28;20025;-77
2021/12/10 10:21:14;;;;;;;10.32;4.78;;;;;;;;;;5000113;28;20105;-77
2021/12/10 10:23:44;;;;;;;14.85;5.07;;;;;;;;;;5001202;28;20026;-76
2021/12/10 10:26:17;;;;;;;21.75;7.78;;;;;;;;;;5000711;28;20034;-77
2021/12/10 10:28:43;;;;;;;16.92;6.47;;;;;;;;;;5000534;28;20031;-76
2021/12/10 10:31:12;;;;;;;21.48;6.38;;;;;;;;;;5000353;28;20384;-76
2021/12/10 10:33:39;;;;;;;16.85;7.80;;;;;;;;;;4999306;28;20022;-75
2021/12/10 10:36:11;;;;;;;23.25;7.82;;;;;;;;;;4999878;28;20025;-78
2021/12/10 10:38:37;;;;;;;23.05;9.45;;;;;;;;;;4992598;23;20137;-81
2021/12/10 10:41:06;;;;;;;25.17;11.02;;;;;;;;;;5002670;28;20026;-81
2021/12/10 10:43:32;;;;;;;27.85;10.18;;;;;;;;;;5002227;28;20027;-80
2021/12/10 10:45:58;;;;;;;25.85;11.23;;;;;;;;;;5000849;28;20038;-80
2021/12/10 10:48:25;;;;;;;22.10;10.43;;;;;;;;;;5002177;28;20484;-80
2021/12/10 10:50:53;;;;;;;17.02;9.38;;;;;;;;;;5001909;28;20022;-80
2021/12/10 10:53:22;;;;;;;32.22;12.77;;;;;;;;;;5002436;28;20026;-80
2021/12/10 10:55:53;;;;;;;23.15;11.75;;;;;;;;;;5002198;28;20101;-80
2021/12/10 10:58:20;;;;;;;15.77;6.18;;;;;;;;;;4999672;28;20045;-81
2021/12/10 11:00:59;;;;;;;23.45;9.25;;;;;;;;;;4998962;28;20080;-80
2021/12/10 11:03:35;;;;;;;17.05;6.07;;;;;;;;;;4999710;28;20388;-80
2021/12/10 11:19:08;;;;;;;28.13;9.50;;;;;;;;;;5584715;23;20412;-81
2021/12/10 11:21:37;;;;;;;23.35;9.93;;;;;;;;;;5000623;28;20318;-82
2021/12/10 11:24:29;;;;;;;62.40;13.82;;;;;;;;;;4999772;28;20025;-81
2021/12/10 11:27:03;;;;;;;60.15;20.27;;;;;;;;;;4996621;28;20065;-81
2021/12/10 11:29:37;;;;;;;59.92;21.00;;;;;;;;;;4983048;28;20382;-81
2021/12/10 11:32:06;;;;;;;106.63;31.85;;;;;;;;;;4999343;28;20023;-81
2021/12/10 11:34:44;;;;;;;92.72;35.88;;;;;;;;;;5000301;28;20080;-81
2021/12/10 11:37:11;;;;;;;100.03;35.67;;;;;;;;;;4999829;28;20361;-81
2021/12/10 11:39:48;;;;;;;82.63;39.10;;;;;;;;;;4998905;28;20069;-81
2021/12/10 11:42:36;;;;;;;87.43;38.65;;;;;;;;;;5022107;23;20042;-81
2021/12/10 11:45:17;;;;;;;99.40;43.03;;;;;;;;;;5000795;28;20405;-81
2021/12/10 11:47:45;;;;;;;110.97;45.22;;;;;;;;;;5001741;28;20064;-82
2021/12/10 11:50:19;;;;;;;176.25;84.70;;;;;;;;;;4982813;28;20022;-81
2021/12/10 11:52:58;;;;;;;136.85;67.85;;;;;;;;;;5000618;28;20421;-81
2021/12/10 11:55:24;;;;;;;167.55;80.15;;;;;;;;;;5005218;23;20056;-81
2021/12/10 11:57:50;;;;;;;183.35;86.18;;;;;;;;;;5031080;23;20350;-81
2021/12/10 12:00:25;;;;;;;188.63;86.40;;;;;;;;;;4999995;28;20121;-81
2021/12/10 12:03:18;;;;;;;178.35;85.88;;;;;;;;;;5000506;28;20018;-81
2021/12/10 12:05:45;;;;;;;166.50;82.68;;;;;;;;;;4978829;28;20137;-81
2021/12/10 12:08:12;;;;;;;184.18;87.25;;;;;;;;;;5000579;28;20049;-81
2021/12/10 12:10:41;;;;;;;180.60;88.13;;;;;;;;;;4983853;28;20022;-82
2021/12/10 12:15:48;;;;;;;181.43;87.13;;;;;;;;;;4999465;28;20026;-81
2021/12/10 12:18:22;;;;;;;186.65;89.45;;;;;;;;;;4999379;28;20421;-81
2021/12/10 12:20:52;;;;;;;212.27;91.47;;;;;;;;;;4999785;28;20018;-81
2021/12/10 12:26:27;;;;;;;187.25;87.25;;;;;;;;;;4999224;28;20034;-81
2021/12/10 12:28:55;;;;;;;181.95;92.93;;;;;;;;;;4998738;28;20074;-81
2021/12/10 12:31:23;;;;;;;180.10;84.22;;;;;;;;;;4981828;28;20044;-81
2021/12/10 12:33:50;;;;;;;199.98;81.07;;;;;;;;;;4998816;28;20026;-82
2021/12/10 12:36:16;;;;;;;190.35;79.60;;;;;;;;;;4998436;28;20026;-82
2021/12/10 12:38:44;;;;;;;152.50;77.53;;;;;;;;;;4982271;28;20022;-81
2021/12/10 12:41:19;;;;;;;159.60;79.03;;;;;;;;;;4997753;28;20452;-81
2021/12/10 12:43:47;;;;;;;182.23;81.88;;;;;;;;;;4999564;28;20022;-81
2021/12/10 12:56:38;;;;;;;249.98;113.55;;;;;;;;;;5964644;23;20622;-80
2021/12/10 12:59:06;;;;;;;277.42;124.97;;;;;;;;;;5019553;23;20077;-81
2021/12/10 13:01:41;;;;;;;283.85;132.80;;;;;;;;;;5000207;28;20018;-80
2021/12/10 13:04:09;;;;;;;304.65;136.07;;;;;;;;;;4998557;28;20443;-81
2021/12/10 13:06:49;;;;;;;348.98;147.88;;;;;;;;;;4997402;28;20313;-80
2021/12/10 13:09:24;;;;;;;364.63;165.77;;;;;;;;;;4998031;28;20026;-80
2021/12/10 13:14:30;;;;;;;346.95;163.32;;;;;;;;;;4998109;28;20049;-80
2021/12/10 13:17:09;;;;;;;350.17;193.32;;;;;;;;;;4999105;28;20018;-80
2021/12/10 13:19:35;;;;;;;418.77;213.93;;;;;;;;;;4998968;28;20082;-80
2021/12/10 13:22:05;;;;;;;402.13;213.63;;;;;;;;;;4998176;28;20418;-81
2021/12/10 13:24:31;;;;;;;400.63;213.45;;;;;;;;;;4998084;28;20015;-80
2021/12/10 13:26:59;;;;;;;350.17;186.07;;;;;;;;;;5022641;23;20085;-80
2021/12/10 13:32:01;;;;;;;205.75;98.32;;;;;;;;;;5595159;23;20096;-81
2021/12/10 13:34:28;;;;;;;246.75;128.63;;;;;;;;;;4999167;28;20022;-82
2021/12/10 13:36:54;;;;;;;171.77;83.22;;;;;;;;;;4999825;28;20090;-82
2021/12/10 13:39:21;;;;;;;178.63;88.63;;;;;;;;;;4997579;28;20022;-82
2021/12/10 13:41:47;;;;;;;165.48;82.75;;;;;;;;;;5016271;23;20062;-82
2021/12/10 13:44:44;;;;;;;134.07;65.22;;;;;;;;;;4999484;28;20030;-82
2021/12/10 13:47:08;;;;;;;72.65;34.30;;;;;;;;;;4998194;28;20046;-82
2021/12/10 13:49:45;;;;;;;40.90;19.10;;;;;;;;;;4997520;28;20025;-82
2021/12/10 13:52:12;;;;;;;27.77;13.13;;;;;;;;;;4999076;28;20029;-82
2021/12/10 13:54:42;;;;;;;28.20;13.10;;;;;;;;;;4997648;28;20018;-81
2021/12/10 13:57:10;;;;;;;36.15;14.70;;;;;;;;;;4997774;28;20029;-82
2021/12/10 13:59:36;;;;;;;23.52;13.38;;;;;;;;;;4997702;28;20026;-82
2021/12/10 14:02:05;;;;;;;26.95;14.68;;;;;;;;;;4999091;28;20037;-82
2021/12/10 14:04:36;;;;;;;42.25;17.52;;;;;;;;;;4997984;28;20045;-82
2021/12/10 14:07:08;;;;;;;47.90;25.00;;;;;;;;;;4996955;28;20072;-82
2021/12/10 14:09:46;;;;;;;26.50;14.40;;;;;;;;;;4997270;28;20022;-82
2021/12/10 14:12:25;;;;;;;22.38;11.57;;;;;;;;;;4998509;28;20068;-82
2021/12/10 14:14:57;;;;;;;27.08;14.35;;;;;;;;;;5000170;28;20048;-81
2021/12/10 14:17:28;;;;;;;20.42;9.05;;;;;;;;;;4999380;28;20030;-82
2021/12/10 14:19:55;;;;;;;21.42;10.18;;;;;;;;;;5002432;28;20096;-82
2021/12/10 14:22:39;;;;;;;34.17;10.13;;;;;;;;;;5002489;28;20018;-82
2021/12/10 14:25:25;;;;;;;27.33;10.25;;;;;;;;;;5001869;28;20045;-82
2021/12/10 14:27:58;;;;;;;20.00;10.20;;;;;;;;;;5002311;28;20023;-82
2021/12/10 14:30:29;;;;;;;18.95;10.25;;;;;;;;;;5002675;28;20077;-82
2021/12/10 14:32:58;;;;;;;20.90;8.43;;;;;;;;;;5000872;28;20026;-81
2021/12/10 14:35:24;;;;;;;21.45;9.40;;;;;;;;;;5000456;28;20041;-82
2021/12/10 14:37:52;;;;;;;16.33;8.90;;;;;;;;;;5002973;28;20053;-81
2021/12/10 14:40:19;;;;;;;24.67;8.13;;;;;;;;;;5001285;28;20030;-81
2021/12/10 14:43:06;;;;;;;22.33;11.60;;;;;;;;;;5001156;28;20046;-82
2021/12/10 14:45:32;;;;;;;25.70;10.63;;;;;;;;;;5002370;28;20035;-81
2021/12/10 14:48:08;;;;;;;23.27;10.15;;;;;;;;;;5001424;28;20076;-81
2021/12/10 14:50:35;;;;;;;17.42;10.00;;;;;;;;;;5000999;28;20060;-81
2021/12/10 14:53:23;;;;;;;18.20;11.43;;;;;;;;;;5000581;28;20025;-81
2021/12/10 14:55:49;;;;;;;17.60;7.32;;;;;;;;;;5001115;28;20030;-81
2021/12/10 14:58:16;;;;;;;29.05;11.50;;;;;;;;;;5000669;28;20429;-82
2021/12/10 15:14:22;;;;;;;;;;;;;;;;;;5037883;23;20178;-78
2021/12/10 15:45:30;;;;;;;14.25;6.90;;;;;;;;;;5077724;23;20695;-80
2021/12/10 15:47:57;;;;;;;17.52;7.15;;;;;;;;;;5000124;28;20030;-81
2021/12/10 15:50:31;;;;;;;9.43;4.82;;;;;;;;;;5035155;23;20058;-82
2021/12/10 15:52:58;;;;;;;16.92;5.72;;;;;;;;;;5001701;28;20113;-81
2021/12/10 15:55:26;;;;;;;10.35;5.50;;;;;;;;;;5000852;28;20014;-81
2021/12/10 15:57:52;;;;;;;14.20;6.47;;;;;;;;;;4999634;28;20404;-81
2021/12/10 16:00:20;;;;;;;16.63;7.65;;;;;;;;;;4999180;28;20030;-81
2021/12/10 16:02:47;;;;;;;17.95;7.93;;;;;;;;;;5000690;28;20018;-82
2021/12/10 16:05:15;;;;;;;20.00;8.52;;;;;;;;;;5000081;28;20441;-80
2021/12/10 16:07:44;;;;;;;15.88;6.63;;;;;;;;;;5000965;28;20027;-81
2021/12/10 16:10:17;;;;;;;14.60;5.75;;;;;;;;;;5000089;28;20049;-81
2021/12/10 16:12:43;;;;;;;22.42;7.38;;;;;;;;;;4998225;28;20023;-80
2021/12/10 16:15:19;;;;;;;16.70;7.47;;;;;;;;;;4998618;28;20022;-81
2021/12/10 16:17:46;;;;;;;16.30;6.30;;;;;;;;;;4983410;28;20026;-81
2021/12/10 16:20:18;;;;;;;14.13;6.38;;;;;;;;;;4998213;28;20109;-80
2021/12/10 16:22:44;;;;;;;15.93;7.68;;;;;;;;;;4999906;28;20371;-81
2021/12/10 16:25:10;;;;;;;13.32;7.28;;;;;;;;;;5000326;28;20321;-81
2021/12/10 16:27:39;;;;;;;17.95;8.02;;;;;;;;;;5001098;28;20018;-81
2021/12/10 16:30:08;;;;;;;18.77;7.45;;;;;;;;;;4999146;28;20033;-80
2021/12/10 16:32:36;;;;;;;14.20;6.25;;;;;;;;;;4999582;28;20340;-81
2021/12/10 16:35:08;;;;;;;13.75;7.50;;;;;;;;;;5000008;28;20018;-80
2021/12/10 16:37:38;;;;;;;12.55;6.50;;;;;;;;;;4999074;28;20033;-81
2021/12/10 16:40:06;;;;;;;13.82;7.07;;;;;;;;;;4999189;28;20037;-82
2021/12/10 16:42:32;;;;;;;20.67;7.75;;;;;;;;;;4998757;28;20152;-81
2021/12/10 16:44:58;;;;;;;15.45;5.85;;;;;;;;;;4999245;28;20413;-81
2021/12/10 16:47:28;;;;;;;27.30;6.70;;;;;;;;;;4997672;28;20026;-80
2021/12/10 16:49:54;;;;;;;12.20;5.15;;;;;;;;;;4998445;28;20030;-81
2021/12/10 16:52:26;;;;;;;20.55;6.65;;;;;;;;;;4998881;28;20094;-82
2021/12/10 16:54:54;;;;;;;11.10;6.20;;;;;;;;;;5000385;28;20029;-80
2021/12/10 16:57:21;;;;;;;11.20;5.80;;;;;;;;;;4999439;28;20029;-81
2021/12/10 16:59:49;;;;;;;11.63;5.18;;;;;;;;;;4997990;28;20333;-80
2021/12/10 17:02:19;;;;;;;11.95;5.43;;;;;;;;;;4997338;28;20028;-81
2021/12/10 17:04:46;;;;;;;10.77;4.50;;;;;;;;;;4998773;28;20025;-81
2021/12/10 17:07:14;;;;;;;16.08;6.57;;;;;;;;;;4997962;28;20396;-81
2021/12/10 17:09:42;;;;;;;12.18;5.00;;;;;;;;;;4998268;28;20030;-81
2021/12/10 17:12:14;;;;;;;10.82;5.78;;;;;;;;;;4997641;28;20089;-81
2021/12/10 17:14:46;;;;;;;12.27;6.32;;;;;;;;;;4999582;28;20023;-81